createdAt,value
2023-03-05T00:01:30.101Z,11.45
2023-03-05T00:03:58.118Z,16.48
2023-03-05T00:06:28.188Z,16.60
2023-03-05T00:08:58.891Z,15.50
2023-03-05T00:11:30.261Z,15.05
2023-03-05T00:13:58.944Z,14.40
2023-03-05T00:16:27.297Z,14.27
2023-03-05T00:18:56.271Z,17.20
2023-03-05T00:21:24.889Z,16.27
2023-03-05T00:23:53.291Z,15.23
2023-03-05T00:26:22.369Z,14.68
2023-03-05T00:31:22.005Z,11.65
2023-03-05T00:33:57.954Z,15.35
2023-03-05T00:36:25.736Z,14.68
2023-03-05T00:38:54.352Z,14.40
2023-03-05T00:41:21.734Z,14.30
2023-03-05T00:43:49.315Z,14.77
2023-03-05T00:46:16.997Z,14.45
2023-03-05T00:48:44.606Z,12.57
2023-03-05T00:51:12.054Z,15.65
2023-03-05T00:53:40.101Z,13.45
2023-03-05T00:56:07.648Z,13.88
2023-03-05T00:58:34.874Z,13.43
2023-03-05T01:01:03.392Z,13.27
2023-03-05T01:03:32.485Z,12.95
2023-03-05T01:06:02.045Z,13.98
2023-03-05T01:08:29.112Z,13.35
2023-03-05T01:10:57.023Z,13.35
2023-03-05T01:13:24.254Z,12.57
2023-03-05T01:15:52.738Z,9.10
2023-03-05T01:18:20.952Z,11.90
2023-03-05T01:20:48.857Z,14.00
2023-03-05T01:23:16.772Z,13.45
2023-03-05T01:25:44.404Z,12.77
2023-03-05T01:28:12.740Z,11.15
2023-03-05T01:30:40.080Z,11.63
2023-03-05T01:33:07.049Z,11.65
2023-03-05T01:35:34.636Z,12.80
2023-03-05T01:38:01.699Z,8.45
2023-03-05T01:40:31.414Z,11.80
2023-03-05T01:43:14.289Z,20.38
2023-03-05T01:46:19.488Z,16.33
2023-03-05T01:48:51.309Z,10.55
2023-03-05T01:51:22.852Z,7.05
2023-03-05T01:53:49.940Z,9.15
2023-03-05T01:56:17.826Z,11.90
2023-03-05T01:58:45.831Z,8.63
2023-03-05T02:01:13.734Z,9.88
2023-03-05T02:03:41.917Z,9.65
2023-03-05T02:06:10.112Z,9.05
2023-03-05T02:08:37.062Z,9.25
2023-03-05T02:11:04.682Z,9.43
2023-03-05T02:13:35.795Z,9.85
2023-03-05T02:16:04.257Z,7.88
2023-03-05T02:18:31.377Z,6.90
2023-03-05T02:21:02.887Z,7.70
2023-03-05T02:23:33.938Z,7.95
2023-03-05T02:26:01.437Z,7.57
2023-03-05T02:28:43.447Z,7.30
2023-03-05T02:31:16.353Z,7.75
2023-03-05T02:33:43.681Z,7.43
2023-03-05T02:36:12.161Z,8.50
2023-03-05T02:38:42.941Z,7.25
2023-03-05T02:41:11.642Z,4.85
2023-03-05T02:43:38.740Z,8.50
2023-03-05T02:46:06.285Z,6.13
2023-03-05T02:48:34.444Z,7.00
2023-03-05T02:51:05.338Z,5.63
2023-03-05T02:53:32.430Z,7.50
2023-03-05T02:56:00.627Z,6.55
2023-03-05T02:58:28.013Z,7.60
2023-03-05T03:00:55.445Z,7.75
2023-03-05T03:03:22.953Z,8.23
2023-03-05T03:05:50.397Z,8.70
2023-03-05T03:08:17.475Z,7.70
2023-03-05T03:10:44.812Z,8.50
2023-03-05T03:13:11.884Z,9.00
2023-03-05T03:15:40.681Z,7.43
2023-03-05T03:18:07.800Z,7.80
2023-03-05T03:20:39.200Z,5.93
2023-03-05T03:23:07.073Z,7.55
2023-03-05T03:25:35.128Z,8.40
2023-03-05T03:28:02.892Z,8.23
2023-03-05T03:30:30.320Z,7.88
2023-03-05T03:32:58.201Z,7.25
2023-03-05T03:35:26.616Z,8.60
2023-03-05T03:37:54.006Z,7.63
2023-03-05T03:40:21.785Z,8.38
2023-03-05T03:42:48.880Z,8.20
2023-03-05T03:45:16.332Z,6.55
2023-03-05T03:47:43.369Z,8.82
2023-03-05T03:50:11.552Z,7.90
2023-03-05T03:52:39.556Z,6.82
2023-03-05T03:55:07.554Z,7.80
2023-03-05T03:57:34.608Z,8.57
2023-03-05T04:00:05.872Z,7.70
2023-03-05T04:02:33.203Z,8.15
2023-03-05T04:05:01.526Z,8.75
2023-03-05T04:07:28.581Z,7.72
2023-03-05T04:09:56.144Z,6.88
2023-03-05T04:12:23.268Z,9.10
2023-03-05T04:14:51.144Z,7.30
2023-03-05T04:17:19.291Z,8.50
2023-03-05T04:19:46.643Z,8.30
2023-03-05T04:22:15.263Z,8.60
2023-03-05T04:24:42.928Z,9.40
2023-03-05T04:27:10.614Z,8.05
2023-03-05T04:29:38.252Z,8.57
2023-03-05T04:32:05.470Z,9.13
2023-03-05T04:34:33.557Z,8.13
2023-03-05T04:37:00.551Z,7.20
2023-03-05T04:39:27.869Z,6.32
2023-03-05T04:41:54.897Z,8.80
2023-03-05T04:44:25.336Z,8.07
2023-03-05T04:46:52.806Z,8.13
2023-03-05T04:49:20.337Z,8.13
2023-03-05T04:51:47.625Z,9.13
2023-03-05T04:56:50.798Z,7.43
2023-03-05T04:59:18.195Z,7.55
2023-03-05T05:04:26.482Z,7.63
2023-03-05T05:06:58.806Z,8.35
2023-03-05T05:09:26.617Z,8.10
2023-03-05T05:11:53.948Z,6.03
2023-03-05T05:14:21.510Z,7.75
2023-03-05T05:16:48.593Z,8.55
2023-03-05T05:19:15.945Z,8.23
2023-03-05T05:21:43.037Z,7.93
2023-03-05T05:24:10.371Z,7.38
2023-03-05T05:26:37.363Z,7.28
2023-03-05T05:29:04.798Z,5.38
2023-03-05T05:31:32.096Z,6.10
2023-03-05T05:33:59.612Z,5.93
2023-03-05T05:36:26.768Z,6.65
2023-03-05T05:38:54.504Z,4.88
2023-03-05T05:41:22.048Z,5.63
2023-03-05T05:43:49.590Z,4.68
2023-03-05T05:46:23.064Z,3.60
2023-03-05T05:57:26.549Z,4.65
2023-03-05T05:59:54.160Z,4.78
2023-03-05T06:02:21.204Z,3.10
2023-03-05T06:04:48.589Z,4.72
2023-03-05T06:07:15.736Z,3.95
2023-03-05T06:09:43.155Z,3.25
2023-03-05T06:12:10.287Z,3.97
2023-03-05T06:14:37.737Z,3.28
2023-03-05T06:17:04.737Z,3.85
2023-03-05T06:19:32.356Z,1.98
2023-03-05T06:21:59.313Z,1.85
2023-03-05T06:24:26.688Z,1.42
2023-03-05T06:26:53.732Z,1.05
2023-03-05T06:29:21.038Z,2.00
2023-03-05T06:31:48.058Z,1.45
2023-03-05T06:34:15.409Z,0.98
2023-03-05T06:36:43.757Z,1.30
2023-03-05T06:39:11.187Z,1.60
2023-03-05T06:41:38.160Z,1.90
2023-03-05T06:44:05.648Z,3.05
2023-03-05T06:46:35.417Z,3.28
2023-03-05T06:49:04.167Z,3.17
2023-03-05T06:51:33.898Z,3.15
2023-03-05T06:54:04.338Z,2.60
2023-03-05T06:56:33.223Z,3.40
2023-03-05T06:59:06.294Z,3.78
2023-03-05T07:01:33.868Z,3.08
2023-03-05T07:04:03.389Z,2.90
2023-03-05T07:06:36.583Z,3.03
2023-03-05T07:09:07.045Z,1.65
2023-03-05T07:11:34.592Z,2.70
2023-03-05T07:14:03.437Z,2.60
2023-03-05T07:16:33.598Z,1.88
2023-03-05T07:21:36.432Z,1.95
2023-03-05T07:24:08.449Z,1.95
2023-03-05T07:26:35.481Z,1.27
2023-03-05T07:29:05.607Z,1.00
2023-03-05T07:31:32.767Z,0.75
2023-03-05T07:34:06.651Z,1.00
2023-03-05T07:36:54.484Z,0.52
2023-03-05T07:39:25.278Z,0.63
2023-03-05T07:41:54.435Z,0.50
2023-03-05T07:44:21.945Z,0.93
2023-03-05T07:46:49.346Z,0.77
2023-03-05T07:49:16.778Z,1.02
2023-03-05T07:51:43.834Z,0.80
2023-03-05T07:54:11.640Z,0.70
2023-03-05T07:56:38.806Z,0.90
2023-03-05T07:59:10.810Z,1.00
2023-03-05T08:01:38.125Z,1.17
2023-03-05T08:04:08.475Z,1.20
2023-03-05T08:06:44.096Z,1.00
2023-03-05T08:09:11.813Z,1.60
2023-03-05T08:11:41.440Z,1.48
2023-03-05T08:14:11.163Z,1.33
2023-03-05T08:16:39.736Z,1.90
2023-03-05T08:19:08.568Z,1.52
2023-03-05T08:21:36.564Z,2.35
2023-03-05T08:24:07.228Z,2.30
2023-03-05T08:26:41.383Z,2.10
2023-03-05T08:29:13.214Z,2.80
2023-03-05T08:31:40.540Z,2.35
2023-03-05T08:34:08.018Z,2.50
2023-03-05T08:36:35.184Z,2.58
2023-03-05T08:39:03.769Z,3.45
2023-03-05T08:41:30.880Z,2.53
2023-03-05T08:43:58.264Z,2.40
2023-03-05T08:46:26.079Z,3.42
2023-03-05T08:48:53.734Z,2.10
2023-03-05T08:51:25.598Z,2.03
2023-03-05T08:53:54.903Z,1.80
2023-03-05T08:56:22.066Z,2.22
2023-03-05T08:58:49.384Z,1.17
2023-03-05T09:01:16.825Z,2.10
2023-03-05T09:03:44.793Z,1.38
2023-03-05T09:06:12.817Z,1.27
2023-03-05T09:08:39.892Z,1.05
2023-03-05T09:11:09.734Z,0.90
2023-03-05T09:13:37.397Z,0.88
2023-03-05T09:16:13.949Z,0.90
2023-03-05T09:18:42.194Z,1.08
2023-03-05T09:21:13.297Z,0.90
2023-03-05T09:23:40.909Z,1.10
2023-03-05T09:26:11.925Z,1.80
2023-03-05T09:28:40.636Z,1.50
2023-03-05T09:31:11.172Z,1.60
2023-03-05T09:33:39.605Z,1.83
2023-03-05T09:36:24.196Z,1.08
2023-03-05T09:38:53.888Z,1.15
2023-03-05T09:41:52.734Z,1.10
2023-03-05T09:44:33.402Z,1.98
2023-03-05T09:47:21.737Z,2.22
2023-03-05T09:50:13.782Z,1.30
2023-03-05T09:52:55.473Z,1.27
2023-03-05T09:55:37.065Z,1.85
2023-03-05T09:58:12.958Z,1.35
2023-03-05T10:00:45.373Z,1.45
2023-03-05T10:03:18.793Z,1.50
2023-03-05T10:06:15.155Z,1.30
2023-03-05T10:09:04.480Z,1.55
2023-03-05T10:11:53.612Z,1.33
2023-03-05T10:14:34.181Z,1.40
2023-03-05T10:17:24.104Z,1.65
2023-03-05T10:20:22.368Z,1.30
2023-03-05T10:23:16.942Z,1.70
2023-03-05T10:26:09.350Z,1.40
2023-03-05T10:28:51.731Z,1.58
2023-03-05T10:31:35.520Z,4.22
2023-03-05T10:34:12.500Z,2.17
2023-03-05T10:36:48.888Z,1.65
2023-03-05T10:39:37.846Z,1.73
2023-03-05T10:42:29.609Z,1.17
2023-03-05T10:45:14.073Z,1.42
2023-03-05T10:48:07.627Z,2.28
2023-03-05T10:50:43.010Z,1.45
2023-03-05T10:55:37.207Z,2.35
2023-03-05T10:58:13.992Z,0.93
2023-03-05T11:00:58.687Z,1.95
2023-03-05T11:06:34.945Z,1.23
2023-03-05T11:09:29.434Z,0.88
2023-03-05T11:12:22.069Z,1.20
2023-03-05T11:15:09.180Z,1.15
2023-03-05T11:17:43.308Z,1.20
2023-03-05T11:20:34.715Z,1.10
2023-03-05T11:23:12.107Z,1.45
2023-03-05T11:25:54.707Z,1.00
2023-03-05T11:28:33.711Z,0.63
2023-03-05T11:31:21.810Z,0.77
2023-03-05T11:34:05.941Z,1.30
2023-03-05T11:36:34.947Z,0.95
2023-03-05T11:39:08.053Z,2.30
2023-03-05T11:42:04.604Z,3.38
2023-03-05T11:44:54.471Z,0.73
2023-03-05T11:47:42.942Z,2.30
2023-03-05T11:50:16.117Z,0.82
2023-03-05T11:52:50.584Z,1.73
2023-03-05T11:55:28.262Z,1.33
2023-03-05T11:58:27.275Z,1.73
2023-03-05T12:00:55.432Z,1.13
2023-03-05T12:03:32.519Z,1.42
2023-03-05T12:06:10.225Z,1.65
2023-03-05T12:08:41.429Z,0.75
2023-03-05T12:11:26.842Z,2.05
2023-03-05T12:14:36.508Z,1.73
2023-03-05T12:17:24.346Z,3.58
2023-03-05T12:20:17.803Z,2.78
2023-03-05T12:22:46.170Z,1.60
2023-03-05T12:27:55.563Z,1.55
2023-03-05T12:30:35.424Z,1.60
2023-03-05T12:33:06.096Z,1.40
2023-03-05T12:35:39.742Z,1.55
2023-03-05T12:38:26.699Z,1.75
2023-03-05T12:41:23.285Z,1.35
2023-03-05T12:47:39.367Z,1.60
2023-03-05T12:50:34.302Z,1.50
2023-03-05T12:53:12.986Z,1.15
2023-03-05T12:55:45.490Z,1.70
2023-03-05T12:58:34.594Z,1.52
2023-03-05T13:01:16.720Z,2.08
2023-03-05T13:03:56.773Z,1.67
2023-03-05T13:06:36.573Z,2.00
2023-03-05T13:09:17.469Z,1.33
2023-03-05T13:11:49.930Z,1.70
2023-03-05T13:14:48.752Z,1.50
2023-03-05T13:17:38.253Z,1.30
2023-03-05T13:20:26.132Z,1.90
2023-03-05T13:23:15.127Z,1.60
2023-03-05T13:25:43.751Z,1.75
2023-03-05T13:28:16.745Z,1.83
2023-03-05T13:30:51.938Z,1.88
2023-03-05T13:33:25.892Z,2.17
2023-03-05T13:35:54.140Z,1.77
2023-03-05T13:38:40.573Z,1.98
2023-03-05T13:41:20.648Z,2.00
2023-03-05T13:44:02.688Z,2.55
2023-03-05T13:46:38.675Z,2.45
2023-03-05T13:49:36.908Z,1.90
2023-03-05T13:52:04.519Z,2.03
2023-03-05T13:54:32.279Z,1.45
2023-03-05T13:57:06.312Z,2.70
2023-03-05T13:59:42.491Z,2.63
2023-03-05T14:02:18.330Z,2.45
2023-03-05T14:04:46.864Z,2.40
2023-03-05T14:07:28.764Z,3.05
2023-03-05T14:10:00.001Z,2.08
2023-03-05T14:12:42.751Z,2.42
2023-03-05T14:15:31.837Z,2.28
2023-03-05T14:18:11.184Z,3.00
2023-03-05T14:21:02.635Z,2.75
2023-03-05T14:23:32.777Z,3.10
2023-03-05T14:26:40.403Z,3.25
2023-03-05T14:29:07.418Z,3.15
2023-03-05T14:31:46.108Z,2.67
2023-03-05T14:34:40.543Z,2.03
2023-03-05T14:37:21.390Z,2.28
2023-03-05T14:39:55.980Z,2.22
2023-03-05T14:42:33.660Z,2.42
2023-03-05T14:45:10.317Z,2.53
2023-03-05T14:47:37.925Z,2.78
2023-03-05T14:50:06.729Z,2.20
2023-03-05T14:52:35.108Z,1.95
2023-03-05T14:55:03.263Z,1.73
2023-03-05T14:57:32.038Z,1.67
2023-03-05T15:00:02.198Z,2.55
2023-03-05T15:02:30.881Z,3.03
2023-03-05T15:05:00.987Z,2.45
2023-03-05T15:07:32.378Z,2.42
2023-03-05T15:10:02.584Z,2.90
2023-03-05T15:12:30.363Z,2.30
2023-03-05T15:14:57.511Z,2.05
2023-03-05T15:17:37.201Z,3.00
2023-03-05T15:20:09.076Z,2.70
2023-03-05T15:22:37.474Z,2.67
2023-03-05T15:25:05.176Z,2.78
2023-03-05T15:27:32.865Z,3.05
2023-03-05T15:30:00.359Z,3.45
2023-03-05T15:32:29.272Z,2.75
2023-03-05T15:34:56.576Z,2.70
2023-03-05T15:37:24.274Z,2.65
2023-03-05T15:42:38.983Z,2.97
2023-03-05T15:45:06.669Z,3.67
2023-03-05T15:47:34.050Z,3.53
2023-03-05T15:50:01.070Z,3.83
2023-03-05T15:52:28.669Z,5.03
2023-03-05T15:54:55.615Z,4.40
2023-03-05T15:57:23.044Z,2.85
2023-03-05T15:59:50.212Z,2.20
2023-03-05T16:02:18.927Z,2.45
2023-03-05T16:04:47.357Z,3.80
2023-03-05T16:07:15.774Z,3.22
2023-03-05T16:09:46.946Z,3.38
2023-03-05T16:12:22.862Z,7.30
2023-03-05T16:14:52.061Z,3.63
2023-03-05T16:17:23.123Z,4.22
2023-03-05T16:19:55.460Z,3.70
2023-03-05T16:22:24.333Z,4.00
2023-03-05T16:24:55.107Z,5.07
2023-03-05T16:27:27.900Z,4.32
2023-03-05T16:29:58.132Z,5.30
2023-03-05T16:32:30.171Z,4.60
2023-03-05T16:34:58.405Z,4.07
2023-03-05T16:37:30.211Z,8.20
2023-03-05T16:40:00.284Z,5.25
2023-03-05T16:42:29.065Z,5.80
2023-03-05T16:44:56.996Z,5.90
2023-03-05T16:47:30.130Z,5.43
2023-03-05T16:49:58.414Z,5.65
2023-03-05T16:52:28.122Z,7.20
2023-03-05T16:54:55.759Z,6.95
2023-03-05T16:57:25.779Z,5.28
2023-03-05T16:59:54.264Z,5.75
2023-03-05T17:02:22.603Z,4.00
2023-03-05T17:04:51.181Z,4.60
2023-03-05T17:07:20.762Z,3.95
2023-03-05T17:09:50.712Z,4.18
2023-03-05T17:12:20.278Z,4.53
2023-03-05T17:14:52.030Z,4.45
2023-03-05T17:17:23.334Z,4.95
2023-03-05T17:19:50.369Z,6.47
2023-03-05T17:22:18.506Z,5.53
2023-03-05T17:24:47.357Z,5.28
2023-03-05T17:27:19.942Z,6.00
2023-03-05T17:29:47.094Z,4.97
2023-03-05T17:32:14.963Z,5.20
2023-03-05T17:34:43.499Z,5.25
2023-03-05T17:37:12.154Z,7.35
2023-03-05T17:39:40.121Z,7.90
2023-03-05T17:42:07.720Z,5.95
2023-03-05T17:44:34.881Z,5.45
2023-03-05T17:47:02.370Z,4.40
2023-03-05T17:49:31.046Z,4.30
2023-03-05T17:51:58.654Z,6.05
2023-03-05T17:54:26.082Z,5.03
2023-03-05T17:56:57.432Z,5.72
2023-03-05T17:59:25.254Z,5.97
2023-03-05T18:01:52.994Z,5.53
2023-03-05T18:04:20.082Z,5.85
2023-03-05T18:06:47.563Z,9.00
2023-03-05T18:09:14.979Z,6.93
2023-03-05T18:11:43.040Z,7.65
2023-03-05T18:14:10.407Z,6.10
2023-03-05T18:16:38.451Z,7.18
2023-03-05T18:19:05.910Z,5.22
2023-03-05T18:21:33.413Z,6.22
2023-03-05T18:24:00.970Z,7.25
2023-03-05T18:26:28.633Z,8.40
2023-03-05T18:28:55.821Z,7.28
2023-03-05T18:31:31.889Z,6.97
2023-03-05T18:33:59.648Z,6.72
2023-03-05T18:36:27.178Z,6.70
2023-03-05T18:38:54.361Z,6.25
2023-03-05T18:41:27.671Z,8.15
2023-03-05T18:43:55.491Z,10.48
2023-03-05T18:46:23.346Z,9.68
2023-03-05T18:48:50.642Z,7.72
2023-03-05T18:51:20.028Z,11.23
2023-03-05T18:53:47.617Z,12.13
2023-03-05T18:56:15.372Z,11.98
2023-03-05T18:58:42.822Z,17.38
2023-03-05T19:01:10.318Z,22.63
2023-03-05T19:03:37.388Z,29.33
2023-03-05T19:06:08.465Z,32.55
2023-03-05T19:08:38.412Z,29.63
2023-03-05T19:11:16.764Z,18.98
2023-03-05T19:13:49.139Z,15.05
2023-03-05T19:16:29.433Z,12.13
2023-03-05T19:19:25.614Z,13.43
2023-03-05T19:21:56.515Z,15.30
2023-03-05T19:24:31.400Z,14.32
2023-03-05T19:27:14.395Z,24.05
2023-03-05T19:29:47.502Z,27.35
2023-03-05T19:32:18.723Z,23.23
2023-03-05T19:34:46.009Z,22.80
2023-03-05T19:37:14.141Z,20.13
2023-03-05T19:39:44.886Z,18.15
2023-03-05T19:42:12.671Z,21.63
2023-03-05T19:44:44.059Z,22.45
2023-03-05T19:47:54.827Z,21.65
2023-03-05T19:50:23.422Z,17.60
2023-03-05T19:52:51.862Z,19.48
2023-03-05T19:57:59.023Z,19.27
2023-03-05T20:00:27.636Z,18.38
2023-03-05T20:02:55.869Z,19.67
2023-03-05T20:05:25.949Z,19.98
2023-03-05T20:07:53.798Z,19.63
2023-03-05T20:10:21.924Z,20.25
2023-03-05T20:12:51.094Z,19.73
2023-03-05T20:15:22.614Z,18.38
2023-03-05T20:17:55.862Z,16.42
2023-03-05T20:20:24.574Z,17.75
2023-03-05T20:22:51.838Z,18.65
2023-03-05T20:25:21.520Z,18.02
2023-03-05T20:30:18.107Z,19.42
2023-03-05T20:32:45.372Z,19.08
2023-03-05T20:35:17.477Z,18.33
2023-03-05T20:38:15.838Z,15.90
2023-03-05T20:43:28.092Z,17.00
2023-03-05T20:48:49.273Z,15.85
2023-03-05T20:51:38.335Z,18.02
2023-03-05T20:56:38.371Z,19.95
2023-03-05T20:59:09.071Z,19.60
2023-03-05T21:01:39.129Z,23.85
2023-03-05T21:04:07.811Z,22.48
2023-03-05T21:06:35.673Z,23.67
2023-03-05T21:09:03.618Z,24.23
2023-03-05T21:11:30.774Z,21.42
2023-03-05T21:13:58.216Z,21.40
2023-03-05T21:16:27.367Z,21.52
2023-03-05T21:18:57.365Z,19.25
2023-03-05T21:21:24.881Z,17.08
2023-03-05T21:23:55.498Z,18.23
2023-03-05T21:26:22.623Z,22.58
2023-03-05T21:28:49.932Z,19.88
2023-03-05T21:31:19.984Z,19.77
2023-03-05T21:33:47.806Z,18.73
2023-03-05T21:36:18.876Z,18.90
2023-03-05T21:38:47.432Z,16.10
2023-03-05T21:41:14.732Z,17.55
2023-03-05T21:43:42.888Z,13.90
2023-03-05T21:46:10.938Z,15.88
2023-03-05T21:48:39.878Z,16.55
2023-03-05T21:51:56.289Z,18.15
2023-03-05T21:54:24.005Z,14.70
2023-03-05T21:56:50.923Z,16.25
2023-03-05T21:59:18.257Z,19.17
2023-03-05T22:01:45.258Z,15.98
2023-03-05T22:04:13.819Z,17.60
2023-03-05T22:06:40.864Z,16.95
2023-03-05T22:09:08.275Z,17.45
2023-03-05T22:14:22.889Z,16.67
2023-03-05T22:16:55.112Z,17.15
2023-03-05T22:19:22.532Z,16.65
2023-03-05T22:21:49.491Z,16.42
2023-03-05T22:24:16.987Z,16.00
2023-03-05T22:26:44.012Z,16.85
2023-03-05T22:29:13.122Z,17.17
2023-03-05T22:31:40.721Z,17.90
2023-03-05T22:34:08.619Z,17.02
2023-03-05T22:36:55.727Z,16.13
2023-03-05T22:39:23.028Z,18.95
2023-03-05T22:41:50.015Z,15.90
2023-03-05T22:44:17.426Z,17.90
2023-03-05T22:46:44.680Z,14.98
2023-03-05T22:49:12.146Z,15.90
2023-03-05T22:51:39.826Z,12.55
2023-03-05T22:54:07.272Z,13.98
2023-03-05T22:56:34.219Z,13.57
2023-03-05T22:59:01.569Z,13.00
2023-03-05T23:01:28.579Z,13.23
2023-03-05T23:04:19.061Z,13.15
2023-03-05T23:06:48.634Z,14.52
2023-03-05T23:09:16.478Z,15.07
2023-03-05T23:11:44.444Z,14.18
2023-03-05T23:14:12.138Z,12.88
2023-03-05T23:16:39.247Z,10.52
2023-03-05T23:19:06.639Z,15.63
2023-03-05T23:21:33.842Z,15.07
2023-03-05T23:24:01.358Z,14.18
2023-03-05T23:26:28.711Z,14.52
2023-03-05T23:28:57.097Z,15.75
2023-03-05T23:31:25.129Z,14.88
2023-03-05T23:33:54.401Z,16.67
2023-03-05T23:36:24.752Z,14.50
2023-03-05T23:38:57.550Z,13.57
2023-03-05T23:41:24.711Z,14.75
2023-03-05T23:43:52.158Z,12.77
2023-03-05T23:46:19.175Z,15.00
2023-03-05T23:48:46.626Z,13.88
2023-03-05T23:51:13.618Z,13.70
2023-03-05T23:53:41.517Z,13.85
2023-03-05T23:56:12.464Z,14.27
2023-03-05T23:58:40.506Z,14.45
